createdAt,value
2022-11-19T00:02:01.354Z,1.80
2022-11-19T00:04:30.422Z,2.30
2022-11-19T00:06:58.471Z,1.97
2022-11-19T00:09:26.705Z,2.20
2022-11-19T00:12:11.974Z,2.07
2022-11-19T00:14:39.617Z,2.10
2022-11-19T00:17:07.295Z,2.40
2022-11-19T00:19:36.290Z,2.17
2022-11-19T00:22:03.962Z,2.60
2022-11-19T00:24:31.627Z,2.73
2022-11-19T00:26:59.270Z,2.50
2022-11-19T00:29:26.984Z,2.60
2022-11-19T00:31:54.630Z,2.80
2022-11-19T00:34:22.264Z,3.20
2022-11-19T00:36:51.384Z,2.83
2022-11-19T00:39:19.428Z,2.83
2022-11-19T00:41:47.403Z,3.10
2022-11-19T00:44:15.047Z,3.23
2022-11-19T00:46:42.738Z,3.57
2022-11-19T00:49:10.366Z,3.87
2022-11-19T00:51:38.086Z,3.10
2022-11-19T00:54:07.155Z,3.33
2022-11-19T00:56:34.900Z,3.00
2022-11-19T00:59:02.622Z,2.87
2022-11-19T01:01:30.286Z,2.70
2022-11-19T01:03:58.034Z,3.50
2022-11-19T01:06:28.217Z,4.03
2022-11-19T01:08:55.886Z,4.43
2022-11-19T01:11:27.060Z,3.97
2022-11-19T01:13:55.275Z,3.97
2022-11-19T01:16:26.199Z,3.53
2022-11-19T01:18:54.730Z,3.57
2022-11-19T01:21:25.698Z,3.80
2022-11-19T01:23:53.689Z,2.57
2022-11-19T01:26:21.610Z,2.60
2022-11-19T01:28:50.647Z,2.33
2022-11-19T01:31:21.869Z,2.43
2022-11-19T01:33:50.025Z,2.90
2022-11-19T01:36:19.268Z,2.80
2022-11-19T01:38:50.663Z,3.37
2022-11-19T01:41:18.986Z,3.07
2022-11-19T01:43:48.657Z,3.70
2022-11-19T01:46:19.781Z,3.30
2022-11-19T01:48:52.755Z,4.23
2022-11-19T01:51:24.485Z,3.90
2022-11-19T01:53:54.999Z,4.37
2022-11-19T01:56:24.510Z,4.70
2022-11-19T01:58:56.456Z,4.80
2022-11-19T02:01:26.038Z,4.80
2022-11-19T02:03:54.152Z,5.17
2022-11-19T02:06:22.078Z,5.23
2022-11-19T02:08:51.544Z,6.43
2022-11-19T02:11:32.492Z,5.30
2022-11-19T02:14:14.957Z,5.47
2022-11-19T02:16:53.674Z,4.80
2022-11-19T02:19:38.790Z,4.77
2022-11-19T02:22:20.769Z,5.90
2022-11-19T02:24:53.761Z,4.60
2022-11-19T02:27:52.099Z,4.80
2022-11-19T02:30:21.335Z,5.47
2022-11-19T02:32:57.829Z,4.67
2022-11-19T02:35:34.224Z,5.80
2022-11-19T02:38:10.555Z,5.10
2022-11-19T02:40:42.750Z,5.00
2022-11-19T02:43:19.136Z,4.97
2022-11-19T02:45:52.957Z,4.53
2022-11-19T02:48:25.530Z,4.63
2022-11-19T02:50:56.168Z,4.77
2022-11-19T02:53:24.054Z,5.37
2022-11-19T02:56:05.850Z,3.80
2022-11-19T02:58:51.903Z,4.47
2022-11-19T03:01:41.345Z,4.20
2022-11-19T03:04:29.345Z,4.67
2022-11-19T03:06:59.412Z,4.23
2022-11-19T03:09:28.675Z,4.17
2022-11-19T03:12:05.063Z,4.37
2022-11-19T03:15:00.680Z,4.20
2022-11-19T03:17:36.319Z,4.27
2022-11-19T03:20:09.435Z,4.13
2022-11-19T03:22:42.621Z,4.47
2022-11-19T03:25:14.308Z,4.37
2022-11-19T03:27:44.533Z,5.00
2022-11-19T03:30:13.819Z,4.47
2022-11-19T03:32:47.485Z,4.80
2022-11-19T03:35:20.177Z,3.90
2022-11-19T03:37:53.597Z,4.40
2022-11-19T03:40:23.032Z,4.33
2022-11-19T03:42:54.366Z,4.53
2022-11-19T03:45:26.055Z,4.47
2022-11-19T03:47:57.934Z,4.10
2022-11-19T03:50:32.149Z,4.37
2022-11-19T03:53:04.352Z,4.50
2022-11-19T03:55:36.910Z,4.10
2022-11-19T03:58:05.785Z,4.67
2022-11-19T04:00:33.879Z,4.67
2022-11-19T04:03:02.955Z,3.83
2022-11-19T04:05:30.740Z,3.17
2022-11-19T04:07:58.514Z,3.70
2022-11-19T04:10:26.168Z,3.97
2022-11-19T04:12:53.894Z,3.90
2022-11-19T04:15:21.579Z,3.70
2022-11-19T04:17:49.214Z,3.53
2022-11-19T04:20:18.445Z,3.57
2022-11-19T04:22:46.300Z,3.93
2022-11-19T04:25:14.064Z,3.93
2022-11-19T04:27:41.828Z,4.20
2022-11-19T04:30:10.925Z,4.70
2022-11-19T04:32:38.634Z,4.70
2022-11-19T04:35:06.810Z,5.20
2022-11-19T04:37:35.937Z,5.53
2022-11-19T04:40:03.562Z,4.37
2022-11-19T04:42:31.278Z,5.07
2022-11-19T04:44:58.982Z,4.70
2022-11-19T04:47:26.687Z,5.77
2022-11-19T04:49:54.350Z,5.93
2022-11-19T04:52:21.975Z,5.33
2022-11-19T04:54:50.978Z,6.33
2022-11-19T04:57:18.617Z,6.70
2022-11-19T04:59:46.343Z,7.23
2022-11-19T05:02:13.995Z,6.70
2022-11-19T05:04:41.781Z,6.43
2022-11-19T05:07:09.458Z,6.90
2022-11-19T05:09:37.148Z,6.90
2022-11-19T05:12:07.449Z,7.43
2022-11-19T05:14:38.293Z,7.70
2022-11-19T05:17:06.076Z,7.77
2022-11-19T05:19:33.731Z,7.40
2022-11-19T05:22:01.431Z,7.97
2022-11-19T05:24:29.237Z,7.93
2022-11-19T05:26:56.917Z,7.23
2022-11-19T05:29:25.975Z,7.97
2022-11-19T05:31:53.667Z,7.80
2022-11-19T05:34:21.499Z,7.73
2022-11-19T05:36:49.255Z,8.70
2022-11-19T05:39:21.925Z,9.03
2022-11-19T05:41:50.494Z,8.93
2022-11-19T05:44:18.518Z,8.90
2022-11-19T05:46:47.544Z,8.83
2022-11-19T05:49:15.256Z,10.13
2022-11-19T05:51:42.940Z,9.17
2022-11-19T05:54:11.848Z,9.17
2022-11-19T05:56:39.851Z,10.27
2022-11-19T05:59:07.494Z,9.57
2022-11-19T06:01:35.191Z,9.97
2022-11-19T06:04:04.286Z,9.30
2022-11-19T06:06:31.967Z,8.97
2022-11-19T06:08:59.776Z,10.57
2022-11-19T06:11:44.781Z,10.20
2022-11-19T06:14:12.428Z,10.80
2022-11-19T06:16:40.176Z,10.23
2022-11-19T06:19:09.347Z,10.47
2022-11-19T06:21:37.167Z,9.77
2022-11-19T06:24:05.065Z,9.60
2022-11-19T06:26:32.766Z,9.67
2022-11-19T06:29:00.496Z,11.00
2022-11-19T06:31:28.263Z,10.17
2022-11-19T06:33:55.942Z,10.83
2022-11-19T06:36:27.514Z,10.77
2022-11-19T06:38:55.515Z,10.83
2022-11-19T06:41:23.619Z,10.60
2022-11-19T06:43:51.374Z,10.43
2022-11-19T06:46:19.030Z,10.87
2022-11-19T06:48:46.711Z,10.87
2022-11-19T06:51:14.718Z,10.73
2022-11-19T06:53:43.775Z,11.50
2022-11-19T06:56:11.454Z,11.10
2022-11-19T06:58:39.250Z,11.73
2022-11-19T07:01:07.090Z,11.73
2022-11-19T07:03:35.662Z,12.50
2022-11-19T07:06:05.636Z,12.57
2022-11-19T07:08:35.565Z,11.63
2022-11-19T07:11:25.469Z,11.93
2022-11-19T07:14:01.047Z,11.73
2022-11-19T07:16:30.693Z,11.63
2022-11-19T07:18:59.702Z,12.20
2022-11-19T07:21:27.638Z,11.77
2022-11-19T07:23:55.580Z,11.93
2022-11-19T07:26:25.376Z,11.90
2022-11-19T07:28:54.210Z,12.20
2022-11-19T07:31:21.851Z,12.70
2022-11-19T07:33:49.499Z,13.23
2022-11-19T07:36:18.713Z,13.30
2022-11-19T07:38:47.030Z,12.03
2022-11-19T07:41:32.394Z,12.83
2022-11-19T07:44:01.450Z,13.63
2022-11-19T07:46:29.198Z,13.63
2022-11-19T07:48:58.122Z,15.40
2022-11-19T07:51:26.854Z,16.50
2022-11-19T07:53:56.073Z,14.67
2022-11-19T07:56:24.288Z,33.93
2022-11-19T07:58:52.344Z,16.67
2022-11-19T08:01:23.324Z,16.30
2022-11-19T08:03:56.353Z,15.23
2022-11-19T08:06:26.422Z,18.20
2022-11-19T08:08:56.036Z,18.70
2022-11-19T08:11:24.700Z,17.10
2022-11-19T08:13:52.703Z,16.87
2022-11-19T08:16:35.942Z,17.93
2022-11-19T08:19:04.162Z,19.10
2022-11-19T08:21:31.787Z,19.93
2022-11-19T08:23:59.464Z,18.30
2022-11-19T08:26:27.055Z,18.47
2022-11-19T08:28:54.768Z,19.47
2022-11-19T08:31:23.718Z,19.03
2022-11-19T08:33:51.353Z,18.47
2022-11-19T08:36:18.966Z,17.03
2022-11-19T08:38:46.755Z,18.63
2022-11-19T08:41:31.663Z,18.37
2022-11-19T08:44:00.684Z,19.63
2022-11-19T08:46:30.328Z,17.57
2022-11-19T08:48:58.761Z,17.90
2022-11-19T08:51:26.482Z,18.73
2022-11-19T08:53:54.365Z,18.83
2022-11-19T08:56:22.655Z,17.80
2022-11-19T08:58:50.582Z,19.70
2022-11-19T09:01:19.070Z,17.97
2022-11-19T09:03:48.348Z,18.53
2022-11-19T09:06:16.142Z,18.23
2022-11-19T09:08:44.337Z,18.37
2022-11-19T09:11:14.230Z,18.97
2022-11-19T09:13:42.479Z,18.67
2022-11-19T09:16:11.433Z,17.10
2022-11-19T09:18:41.867Z,17.70
2022-11-19T09:21:12.605Z,17.10
2022-11-19T09:23:41.404Z,18.50
2022-11-19T09:26:10.755Z,17.53
2022-11-19T09:28:38.328Z,17.50
2022-11-19T09:31:09.053Z,17.50
2022-11-19T09:33:38.779Z,19.57
2022-11-19T09:36:06.964Z,17.73
2022-11-19T09:38:36.049Z,17.83
2022-11-19T09:41:22.887Z,17.10
2022-11-19T09:44:01.237Z,16.47
2022-11-19T09:46:35.057Z,16.10
2022-11-19T09:49:10.699Z,22.50
2022-11-19T09:51:42.562Z,18.70
2022-11-19T09:54:16.946Z,16.87
2022-11-19T09:56:47.020Z,16.23
2022-11-19T09:59:26.035Z,18.80
2022-11-19T10:01:54.248Z,17.03
2022-11-19T10:04:25.064Z,16.77
2022-11-19T10:07:06.439Z,15.77
2022-11-19T10:10:01.000Z,16.00
2022-11-19T10:12:46.084Z,17.67
2022-11-19T10:15:22.208Z,14.40
2022-11-19T10:17:59.388Z,15.23
2022-11-19T10:20:49.041Z,15.27
2022-11-19T10:23:19.259Z,14.97
2022-11-19T10:25:50.195Z,16.73
2022-11-19T10:28:23.380Z,16.17
2022-11-19T10:30:54.554Z,16.00
2022-11-19T10:33:28.547Z,16.00
2022-11-19T10:35:59.798Z,14.63
2022-11-19T10:38:34.001Z,14.43
2022-11-19T10:41:09.736Z,14.37
2022-11-19T10:43:46.205Z,15.33
2022-11-19T10:46:17.456Z,14.83
2022-11-19T10:48:48.922Z,16.33
2022-11-19T10:51:22.944Z,14.80
2022-11-19T10:53:51.983Z,14.77
2022-11-19T10:56:25.069Z,14.97
2022-11-19T10:58:55.740Z,14.13
2022-11-19T11:01:29.319Z,14.43
2022-11-19T11:04:07.503Z,14.13
2022-11-19T11:06:52.350Z,13.73
2022-11-19T11:09:31.317Z,30.67
2022-11-19T11:12:23.031Z,15.10
2022-11-19T11:14:54.164Z,18.80
2022-11-19T11:17:25.649Z,15.40
2022-11-19T11:20:00.376Z,15.40
2022-11-19T11:22:29.783Z,15.93
2022-11-19T11:25:00.523Z,15.97
2022-11-19T11:27:34.916Z,14.77
2022-11-19T11:30:08.560Z,15.80
2022-11-19T11:32:36.773Z,16.97
2022-11-19T11:35:09.041Z,17.33
2022-11-19T11:37:39.281Z,16.33
2022-11-19T11:40:08.426Z,16.33
2022-11-19T11:42:38.039Z,17.77
2022-11-19T11:45:09.064Z,16.23
2022-11-19T11:47:40.658Z,17.47
2022-11-19T11:50:15.433Z,15.87
2022-11-19T11:52:47.076Z,17.67
2022-11-19T11:55:17.040Z,19.50
2022-11-19T11:57:57.000Z,17.17
2022-11-19T12:00:34.252Z,17.53
2022-11-19T12:03:04.351Z,18.13
2022-11-19T12:05:44.757Z,18.00
2022-11-19T12:08:26.867Z,18.47
2022-11-19T12:11:02.147Z,18.80
2022-11-19T12:13:47.982Z,18.80
2022-11-19T12:16:23.755Z,31.30
2022-11-19T12:19:08.416Z,18.17
2022-11-19T12:21:45.049Z,18.63
2022-11-19T12:24:30.020Z,18.87
2022-11-19T12:27:06.876Z,17.93
2022-11-19T12:29:42.943Z,18.07
2022-11-19T12:32:22.028Z,18.13
2022-11-19T12:35:20.474Z,43.90
2022-11-19T12:38:14.350Z,19.30
2022-11-19T12:40:50.821Z,18.03
2022-11-19T12:43:46.936Z,18.20
2022-11-19T12:46:21.618Z,17.80
2022-11-19T12:54:26.786Z,17.70
2022-11-19T12:57:13.924Z,17.43
2022-11-19T12:59:56.472Z,16.90
2022-11-19T13:02:29.806Z,17.13
2022-11-19T13:05:03.337Z,16.63
2022-11-19T13:07:36.826Z,16.67
2022-11-19T13:10:13.594Z,16.60
2022-11-19T13:12:46.572Z,15.50
2022-11-19T13:15:20.212Z,16.47
2022-11-19T13:17:52.455Z,15.50
2022-11-19T13:20:26.574Z,16.53
2022-11-19T13:22:58.147Z,16.83
2022-11-19T13:25:29.854Z,16.27
2022-11-19T13:27:59.795Z,14.30
2022-11-19T13:30:28.583Z,17.10
2022-11-19T13:33:06.301Z,17.03
2022-11-19T13:35:44.125Z,17.27
2022-11-19T13:38:19.327Z,18.00
2022-11-19T13:40:51.120Z,15.77
2022-11-19T13:43:38.438Z,18.37
2022-11-19T13:46:18.027Z,17.90
2022-11-19T13:48:52.491Z,16.37
2022-11-19T13:51:27.626Z,16.63
2022-11-19T13:54:02.393Z,18.20
2022-11-19T13:56:42.009Z,18.73
2022-11-19T13:59:24.990Z,17.80
2022-11-19T14:02:02.768Z,19.23
2022-11-19T14:04:55.469Z,19.60
2022-11-19T14:07:54.381Z,19.23
2022-11-19T14:10:30.573Z,18.10
2022-11-19T14:13:24.429Z,19.20
2022-11-19T14:16:23.544Z,18.00
2022-11-19T14:19:13.027Z,18.23
2022-11-19T14:22:07.320Z,16.43
2022-11-19T14:25:12.713Z,17.93
2022-11-19T14:27:40.930Z,18.03
2022-11-19T14:30:14.886Z,17.47
2022-11-19T14:32:47.420Z,15.87
2022-11-19T14:35:29.275Z,16.70
2022-11-19T14:38:06.939Z,16.00
2022-11-19T14:40:37.573Z,15.67
2022-11-19T14:43:43.304Z,16.17
2022-11-19T14:46:28.503Z,16.37
2022-11-19T14:49:04.314Z,17.63
2022-11-19T14:51:36.147Z,17.90
2022-11-19T14:54:19.316Z,17.10
2022-11-19T14:56:50.535Z,17.70
2022-11-19T14:59:21.697Z,16.60
2022-11-19T15:01:55.193Z,17.27
2022-11-19T15:04:25.206Z,17.17
2022-11-19T15:06:53.308Z,16.23
2022-11-19T15:09:54.080Z,15.33
2022-11-19T15:12:22.499Z,15.70
2022-11-19T15:15:08.504Z,15.77
2022-11-19T15:17:36.544Z,15.13
2022-11-19T15:20:28.609Z,15.47
2022-11-19T15:23:08.557Z,15.77
2022-11-19T15:25:49.609Z,15.73
2022-11-19T15:28:33.289Z,16.73
2022-11-19T15:31:20.765Z,15.23
2022-11-19T15:34:03.810Z,15.63
2022-11-19T15:36:34.638Z,14.53
2022-11-19T15:39:06.995Z,14.40
2022-11-19T15:41:39.265Z,14.57
2022-11-19T15:44:10.066Z,14.23
2022-11-19T15:46:43.968Z,12.70
2022-11-19T15:49:15.520Z,13.63
2022-11-19T15:51:57.850Z,14.43
2022-11-19T15:54:29.598Z,13.83
2022-11-19T15:57:02.594Z,13.13
2022-11-19T15:59:32.121Z,12.63
2022-11-19T16:02:02.008Z,11.80
2022-11-19T16:04:37.563Z,13.20
2022-11-19T16:07:08.827Z,13.03
2022-11-19T16:09:37.088Z,13.20
2022-11-19T16:12:24.277Z,12.57
2022-11-19T16:15:10.442Z,11.67
2022-11-19T16:17:44.487Z,12.03
2022-11-19T16:20:21.801Z,12.30
2022-11-19T16:22:54.900Z,11.57
2022-11-19T16:25:28.656Z,11.20
2022-11-19T16:27:59.686Z,12.93
2022-11-19T16:30:29.351Z,13.17
2022-11-19T16:32:59.245Z,12.33
2022-11-19T16:35:29.721Z,12.90
2022-11-19T16:37:58.630Z,12.33
2022-11-19T16:40:27.776Z,12.97
2022-11-19T16:42:59.644Z,13.27
2022-11-19T16:45:29.463Z,13.00
2022-11-19T16:47:58.766Z,12.53
2022-11-19T16:50:29.606Z,13.07
2022-11-19T16:52:57.358Z,12.07
2022-11-19T16:55:53.069Z,11.57
2022-11-19T16:58:26.579Z,12.70
2022-11-19T17:00:59.512Z,12.03
2022-11-19T17:03:34.558Z,14.07
2022-11-19T17:06:04.180Z,12.37
2022-11-19T17:08:34.665Z,11.63
2022-11-19T17:11:52.972Z,13.23
2022-11-19T17:14:25.966Z,12.63
2022-11-19T17:16:54.490Z,11.67
2022-11-19T17:19:27.345Z,11.10
2022-11-19T17:22:01.510Z,12.50
2022-11-19T17:24:32.911Z,11.70
2022-11-19T17:27:01.246Z,12.03
2022-11-19T17:29:30.561Z,11.40
2022-11-19T17:31:58.642Z,11.23
2022-11-19T17:34:35.415Z,12.10
2022-11-19T17:37:03.333Z,12.77
2022-11-19T17:39:31.861Z,12.70
2022-11-19T17:42:17.622Z,13.30
2022-11-19T17:44:46.955Z,12.63
2022-11-19T17:47:22.167Z,11.93
2022-11-19T17:49:51.627Z,12.50
2022-11-19T17:52:25.191Z,11.37
2022-11-19T17:54:56.243Z,12.23
2022-11-19T17:57:24.327Z,12.67
2022-11-19T17:59:53.587Z,12.17
2022-11-19T18:02:24.056Z,12.13
2022-11-19T18:04:53.093Z,12.70
2022-11-19T18:07:21.098Z,11.70
2022-11-19T18:09:49.069Z,12.27
2022-11-19T18:12:20.345Z,12.53
2022-11-19T18:14:48.984Z,13.73
2022-11-19T18:17:18.418Z,13.00
2022-11-19T18:19:46.361Z,13.50
2022-11-19T18:22:21.307Z,12.77
2022-11-19T18:24:50.288Z,12.97
2022-11-19T18:27:18.793Z,12.70
2022-11-19T18:29:46.663Z,13.17
2022-11-19T18:32:17.058Z,13.77
2022-11-19T18:34:46.976Z,11.73
2022-11-19T18:37:15.169Z,12.93
2022-11-19T18:39:42.859Z,13.63
2022-11-19T18:42:11.812Z,12.70
2022-11-19T18:44:38.970Z,13.53
2022-11-19T18:47:09.835Z,13.17
2022-11-19T18:49:38.489Z,13.17
2022-11-19T18:52:09.648Z,12.83
2022-11-19T18:54:37.312Z,12.43
2022-11-19T18:57:05.192Z,13.60
2022-11-19T18:59:32.837Z,14.97
2022-11-19T19:04:42.877Z,14.73
2022-11-19T19:07:12.138Z,16.40
2022-11-19T19:09:40.769Z,16.23
2022-11-19T19:12:18.620Z,15.53
2022-11-19T19:14:48.032Z,16.33
2022-11-19T19:17:16.725Z,16.97
2022-11-19T19:19:44.366Z,16.80
2022-11-19T19:22:13.287Z,16.60
2022-11-19T19:24:40.931Z,15.83
2022-11-19T19:27:08.659Z,17.30
2022-11-19T19:29:36.909Z,16.97
2022-11-19T19:35:56.185Z,17.13
2022-11-19T19:38:25.323Z,17.60
2022-11-19T19:40:53.169Z,17.60
2022-11-19T19:43:20.813Z,18.03
2022-11-19T19:45:49.194Z,17.40
2022-11-19T19:48:16.905Z,18.43
2022-11-19T19:50:50.932Z,17.87
2022-11-19T19:53:18.716Z,19.50
2022-11-19T19:55:47.891Z,18.73
2022-11-19T19:58:15.763Z,18.70
2022-11-19T20:00:43.637Z,17.90
2022-11-19T20:03:15.569Z,17.93
2022-11-19T20:05:49.665Z,16.90
2022-11-19T20:08:17.537Z,17.67
2022-11-19T20:10:45.357Z,16.27
2022-11-19T20:13:30.599Z,16.80
2022-11-19T20:16:00.705Z,18.10
2022-11-19T20:18:28.816Z,17.37
2022-11-19T20:21:00.266Z,18.27
2022-11-19T20:23:28.325Z,16.73
2022-11-19T20:25:59.820Z,17.00
2022-11-19T20:28:30.103Z,17.73
2022-11-19T20:31:04.284Z,17.17
2022-11-19T20:33:32.197Z,17.33
2022-11-19T20:36:00.037Z,17.20
2022-11-19T20:38:28.923Z,17.53
2022-11-19T20:40:59.125Z,17.73
2022-11-19T20:43:50.109Z,17.60
2022-11-19T20:46:22.689Z,16.93
2022-11-19T20:48:51.266Z,18.07
2022-11-19T20:51:19.936Z,17.07
2022-11-19T20:53:48.214Z,16.17
2022-11-19T20:56:15.976Z,16.97
2022-11-19T20:58:44.105Z,16.80
2022-11-19T21:01:12.240Z,17.57
2022-11-19T21:03:41.485Z,17.37
2022-11-19T21:06:09.753Z,17.63
2022-11-19T21:08:38.249Z,17.90
2022-11-19T21:11:09.076Z,16.40
2022-11-19T21:13:37.561Z,17.93
2022-11-19T21:16:06.722Z,19.03
2022-11-19T21:18:37.044Z,17.13
2022-11-19T21:21:07.515Z,17.93
2022-11-19T21:23:36.116Z,17.07
2022-11-19T21:26:05.309Z,17.90
2022-11-19T21:28:33.961Z,17.93
2022-11-19T21:31:02.272Z,19.30
2022-11-19T21:33:30.960Z,18.20
2022-11-19T21:35:59.624Z,18.47
2022-11-19T21:38:28.966Z,16.80
2022-11-19T21:40:57.068Z,16.70
2022-11-19T21:43:27.038Z,17.13
2022-11-19T21:45:55.608Z,17.63
2022-11-19T21:48:24.124Z,19.07
2022-11-19T21:50:54.338Z,18.23
2022-11-19T21:53:22.750Z,18.63
2022-11-19T21:55:52.450Z,19.30
2022-11-19T21:58:20.470Z,19.73
2022-11-19T22:00:48.773Z,18.77
2022-11-19T22:03:17.040Z,19.80
2022-11-19T22:05:45.057Z,19.77
2022-11-19T22:08:13.352Z,18.83
2022-11-19T22:10:45.352Z,18.17
2022-11-19T22:13:14.959Z,19.47
2022-11-19T22:15:43.223Z,19.30
2022-11-19T22:18:11.088Z,18.40
2022-11-19T22:20:38.970Z,20.30
2022-11-19T22:23:06.778Z,19.27
2022-11-19T22:25:35.410Z,19.47
2022-11-19T22:28:03.624Z,19.83
2022-11-19T22:30:32.879Z,18.03
2022-11-19T22:33:00.873Z,19.10
2022-11-19T22:35:28.746Z,18.83
2022-11-19T22:37:56.625Z,18.97
2022-11-19T22:40:24.431Z,18.57
2022-11-19T22:42:52.246Z,18.47
2022-11-19T22:45:20.204Z,19.50
2022-11-19T22:47:49.421Z,18.43
2022-11-19T22:50:17.382Z,19.67
2022-11-19T22:52:45.204Z,18.57
2022-11-19T22:55:13.178Z,20.00
2022-11-19T22:57:40.923Z,16.70
2022-11-19T23:00:13.042Z,16.40
2022-11-19T23:02:40.826Z,18.53
2022-11-19T23:05:10.217Z,17.17
2022-11-19T23:07:38.216Z,18.80
2022-11-19T23:10:06.637Z,19.50
2022-11-19T23:12:52.013Z,18.23
2022-11-19T23:15:19.748Z,17.40
2022-11-19T23:17:47.453Z,19.90
2022-11-19T23:20:16.643Z,19.57
2022-11-19T23:22:44.438Z,18.73
2022-11-19T23:25:12.262Z,18.50
2022-11-19T23:27:39.910Z,18.43
2022-11-19T23:30:09.274Z,17.93
2022-11-19T23:32:37.233Z,18.77
2022-11-19T23:35:05.584Z,19.17
2022-11-19T23:37:34.640Z,18.33
2022-11-19T23:40:02.535Z,18.00
2022-11-19T23:42:30.567Z,17.90
2022-11-19T23:44:58.207Z,17.93
2022-11-19T23:47:25.917Z,17.87
2022-11-19T23:49:53.627Z,17.80
2022-11-19T23:52:21.367Z,17.47
2022-11-19T23:54:50.471Z,19.30
2022-11-19T23:57:18.268Z,17.60
2022-11-19T23:59:46.044Z,18.00
